createdAt,value
2017-12-25T00:01:47.832Z,6.10
2017-12-25T00:04:15.441Z,6.47
2017-12-25T00:06:42.980Z,5.20
2017-12-25T00:09:11.274Z,5.53
2017-12-25T00:11:38.839Z,6.03
2017-12-25T00:14:06.369Z,6.10
2017-12-25T00:16:34.716Z,5.60
2017-12-25T00:19:02.232Z,5.80
2017-12-25T00:21:29.798Z,5.50
2017-12-25T00:23:57.310Z,5.47
2017-12-25T00:26:24.872Z,5.50
2017-12-25T00:28:52.393Z,5.53
2017-12-25T00:31:20.019Z,5.43
2017-12-25T00:33:47.520Z,5.07
2017-12-25T00:36:15.053Z,5.10
2017-12-25T00:38:42.623Z,5.70
2017-12-25T00:41:10.161Z,5.33
2017-12-25T00:43:38.456Z,5.57
2017-12-25T00:46:06.028Z,5.70
2017-12-25T00:48:33.570Z,5.77
2017-12-25T00:51:01.096Z,5.67
2017-12-25T00:53:28.717Z,6.30
2017-12-25T00:55:56.678Z,5.10
2017-12-25T00:58:24.206Z,5.33
2017-12-25T01:00:52.513Z,5.90
2017-12-25T01:03:20.072Z,5.17
2017-12-25T01:05:47.601Z,4.83
2017-12-25T01:08:15.941Z,5.60
2017-12-25T01:10:43.486Z,5.80
2017-12-25T01:13:11.131Z,6.50
2017-12-25T01:15:38.990Z,7.10
2017-12-25T01:18:06.505Z,5.20
2017-12-25T01:20:35.546Z,5.90
2017-12-25T01:23:03.245Z,5.13
2017-12-25T01:25:30.989Z,5.80
2017-12-25T01:27:58.754Z,4.60
2017-12-25T01:30:26.280Z,5.20
2017-12-25T01:32:54.596Z,4.87
2017-12-25T01:35:22.144Z,4.60
2017-12-25T01:37:49.666Z,4.90
2017-12-25T01:40:17.208Z,4.43
2017-12-25T01:42:44.743Z,4.33
2017-12-25T01:45:12.273Z,3.93
2017-12-25T01:47:40.540Z,3.90
2017-12-25T01:50:08.943Z,4.10
2017-12-25T01:52:36.457Z,3.80
2017-12-25T01:55:04.087Z,4.57
2017-12-25T01:57:39.330Z,4.20
2017-12-25T02:13:30.908Z,4.83
2017-12-25T02:15:59.225Z,5.77
2017-12-25T02:18:26.738Z,5.03
2017-12-25T02:20:55.049Z,5.40
2017-12-25T02:23:22.565Z,5.80
2017-12-25T02:25:50.110Z,5.73
2017-12-25T02:28:17.715Z,6.63
2017-12-25T02:30:45.260Z,6.00
2017-12-25T02:33:13.533Z,6.80
2017-12-25T02:35:41.824Z,5.97
2017-12-25T02:38:09.399Z,6.30
2017-12-25T02:40:36.913Z,6.10
2017-12-25T02:43:04.448Z,5.70
2017-12-25T02:45:31.955Z,5.87
2017-12-25T02:48:00.261Z,5.13
2017-12-25T02:50:27.820Z,4.83
2017-12-25T02:52:55.391Z,4.90
2017-12-25T02:55:22.905Z,5.00
2017-12-25T02:57:51.222Z,3.87
2017-12-25T03:00:18.754Z,4.40
2017-12-25T03:02:47.062Z,4.00
2017-12-25T03:05:14.625Z,3.67
2017-12-25T03:07:42.149Z,4.20
2017-12-25T03:10:10.479Z,4.40
2017-12-25T03:12:38.007Z,4.30
2017-12-25T03:15:05.790Z,4.00
2017-12-25T03:17:33.343Z,4.43
2017-12-25T03:20:00.902Z,3.93
2017-12-25T03:22:28.444Z,4.77
2017-12-25T03:24:56.720Z,4.27
2017-12-25T03:27:25.014Z,3.90
2017-12-25T03:29:52.577Z,5.17
2017-12-25T03:32:20.150Z,5.10
2017-12-25T03:34:47.683Z,5.20
2017-12-25T03:37:16.099Z,4.93
2017-12-25T03:39:43.644Z,4.63
2017-12-25T03:42:11.153Z,4.33
2017-12-25T03:44:38.764Z,5.33
2017-12-25T03:47:06.351Z,4.30
2017-12-25T03:49:33.892Z,4.83
2017-12-25T03:52:01.404Z,5.07
2017-12-25T03:54:28.927Z,4.77
2017-12-25T03:56:56.466Z,5.90
2017-12-25T03:59:23.998Z,5.47
2017-12-25T04:01:52.274Z,6.30
2017-12-25T04:04:20.584Z,6.37
2017-12-25T04:06:48.112Z,7.30
2017-12-25T04:09:16.417Z,7.67
2017-12-25T04:11:44.896Z,7.07
2017-12-25T04:14:12.464Z,7.10
2017-12-25T04:16:40.021Z,7.77
2017-12-25T04:19:07.551Z,8.17
2017-12-25T04:21:35.835Z,6.73
2017-12-25T04:24:04.149Z,7.80
2017-12-25T04:26:31.687Z,6.70
2017-12-25T04:28:59.240Z,7.07
2017-12-25T04:31:27.516Z,5.97
2017-12-25T04:33:55.836Z,5.87
2017-12-25T04:36:23.389Z,6.30
2017-12-25T04:38:50.946Z,5.80
2017-12-25T04:41:18.482Z,5.60
2017-12-25T04:43:46.752Z,5.10
2017-12-25T04:46:15.047Z,4.63
2017-12-25T04:48:42.556Z,4.70
2017-12-25T04:51:10.183Z,5.27
2017-12-25T04:53:37.684Z,4.50
2017-12-25T04:56:05.215Z,5.07
2017-12-25T04:58:32.745Z,5.00
2017-12-25T05:01:00.281Z,4.40
2017-12-25T05:03:27.873Z,5.50
2017-12-25T05:05:55.434Z,4.80
2017-12-25T05:08:22.998Z,4.47
2017-12-25T05:10:50.517Z,5.40
2017-12-25T05:13:18.031Z,4.83
2017-12-25T05:15:45.573Z,4.63
2017-12-25T05:18:13.093Z,4.97
2017-12-25T05:20:41.424Z,5.50
2017-12-25T05:23:08.979Z,5.07
2017-12-25T05:25:36.540Z,4.43
2017-12-25T05:28:04.101Z,4.43
2017-12-25T05:30:31.642Z,4.30
2017-12-25T05:32:59.936Z,4.00
2017-12-25T05:35:27.465Z,3.93
2017-12-25T05:37:55.745Z,4.10
2017-12-25T05:40:24.053Z,4.00
2017-12-25T05:42:51.582Z,4.20
2017-12-25T05:45:19.896Z,4.30
2017-12-25T05:47:47.411Z,3.60
2017-12-25T05:50:14.934Z,3.67
2017-12-25T05:52:43.392Z,3.57
2017-12-25T05:55:10.949Z,4.07
2017-12-25T05:57:38.473Z,3.60
2017-12-25T06:00:05.990Z,3.53
2017-12-25T06:02:33.525Z,3.60
2017-12-25T06:05:01.096Z,3.77
2017-12-25T06:07:28.613Z,4.10
2017-12-25T06:09:56.227Z,3.63
2017-12-25T06:12:23.773Z,3.20
2017-12-25T06:14:51.346Z,3.33
2017-12-25T06:17:18.870Z,3.60
2017-12-25T06:19:47.169Z,3.60
2017-12-25T06:22:14.732Z,3.53
2017-12-25T06:24:42.294Z,3.97
2017-12-25T06:27:09.820Z,3.33
2017-12-25T06:29:37.341Z,3.30
2017-12-25T06:32:04.873Z,3.17
2017-12-25T06:34:32.378Z,3.77
2017-12-25T06:36:59.968Z,3.40
2017-12-25T06:39:28.247Z,3.83
2017-12-25T06:41:57.379Z,3.20
2017-12-25T06:44:24.912Z,3.50
2017-12-25T06:46:53.196Z,3.50
2017-12-25T06:49:21.484Z,3.50
2017-12-25T06:51:49.751Z,3.93
2017-12-25T06:54:18.048Z,3.57
2017-12-25T06:56:45.555Z,3.20
2017-12-25T06:59:13.087Z,3.70
2017-12-25T07:01:40.636Z,3.03
2017-12-25T07:04:08.180Z,3.57
2017-12-25T07:06:35.727Z,4.20
2017-12-25T07:09:04.859Z,3.10
2017-12-25T07:11:32.394Z,3.47
2017-12-25T07:13:59.984Z,3.50
2017-12-25T07:16:27.536Z,3.63
2017-12-25T07:18:55.168Z,3.33
2017-12-25T07:21:23.465Z,3.13
2017-12-25T07:23:51.005Z,3.20
2017-12-25T07:26:19.304Z,2.80
2017-12-25T07:28:46.835Z,3.20
2017-12-25T07:31:15.105Z,3.83
2017-12-25T07:33:43.395Z,3.47
2017-12-25T07:36:11.696Z,3.60
2017-12-25T07:38:39.267Z,3.87
2017-12-25T07:41:06.936Z,3.30
2017-12-25T07:43:34.432Z,3.20
2017-12-25T07:46:02.045Z,3.40
2017-12-25T07:48:29.647Z,3.60
2017-12-25T07:50:57.274Z,3.17
2017-12-25T07:53:25.024Z,3.23
2017-12-25T07:55:52.544Z,3.40
2017-12-25T07:58:20.157Z,3.40
2017-12-25T08:00:47.720Z,3.70
2017-12-25T08:03:15.298Z,4.13
2017-12-25T08:05:42.833Z,3.00
2017-12-25T08:08:10.396Z,2.93
2017-12-25T08:10:37.980Z,3.20
2017-12-25T08:13:05.607Z,3.47
2017-12-25T08:15:33.145Z,3.13
2017-12-25T08:18:01.421Z,3.43
2017-12-25T08:20:28.963Z,3.57
2017-12-25T08:22:56.473Z,3.60
2017-12-25T08:25:23.996Z,3.53
2017-12-25T08:27:52.302Z,3.20
2017-12-25T08:30:20.615Z,3.10
2017-12-25T08:32:48.228Z,3.17
2017-12-25T08:35:16.620Z,3.43
2017-12-25T08:37:44.918Z,3.40
2017-12-25T08:40:12.429Z,3.63
2017-12-25T08:42:40.117Z,3.00
2017-12-25T08:45:08.404Z,3.70
2017-12-25T08:47:35.942Z,3.20
2017-12-25T08:50:03.530Z,3.23
2017-12-25T08:52:31.492Z,3.03
2017-12-25T08:54:59.060Z,4.50
2017-12-25T08:57:26.596Z,4.07
2017-12-25T08:59:54.317Z,3.37
2017-12-25T09:02:21.841Z,3.10
2017-12-25T09:04:50.268Z,3.53
2017-12-25T09:07:18.610Z,3.20
2017-12-25T09:09:46.172Z,3.77
2017-12-25T09:12:13.696Z,4.07
2017-12-25T09:14:41.296Z,3.20
2017-12-25T09:17:08.814Z,3.93
2017-12-25T09:19:36.331Z,3.70
2017-12-25T09:22:04.052Z,4.10
2017-12-25T09:24:32.338Z,3.47
2017-12-25T09:27:00.689Z,3.33
2017-12-25T09:29:28.410Z,3.30
2017-12-25T09:31:55.959Z,3.57
2017-12-25T09:34:23.482Z,3.90
2017-12-25T09:36:51.000Z,3.40
2017-12-25T09:39:18.531Z,3.70
2017-12-25T09:41:46.113Z,4.23
2017-12-25T09:44:13.638Z,3.53
2017-12-25T09:46:41.917Z,4.10
2017-12-25T09:49:10.218Z,4.10
2017-12-25T09:51:37.733Z,3.97
2017-12-25T09:54:05.269Z,3.87
2017-12-25T09:56:32.804Z,4.07
2017-12-25T09:59:00.576Z,3.80
2017-12-25T10:01:28.106Z,3.93
2017-12-25T10:03:56.504Z,4.40
2017-12-25T10:06:24.108Z,4.33
2017-12-25T10:08:51.634Z,3.20
2017-12-25T10:11:19.132Z,3.70
2017-12-25T10:13:46.652Z,4.20
2017-12-25T10:16:14.189Z,3.40
2017-12-25T10:18:42.493Z,3.90
2017-12-25T10:21:10.025Z,4.03
2017-12-25T10:23:38.305Z,3.60
2017-12-25T10:26:05.839Z,4.23
2017-12-25T10:28:33.498Z,3.90
2017-12-25T10:31:01.028Z,4.63
2017-12-25T10:33:28.548Z,4.33
2017-12-25T10:35:56.843Z,5.23
2017-12-25T10:38:24.365Z,5.73
2017-12-25T10:40:51.901Z,4.90
2017-12-25T10:43:19.414Z,6.17
2017-12-25T10:45:46.985Z,6.00
2017-12-25T10:48:14.489Z,6.00
2017-12-25T10:50:42.035Z,6.80
2017-12-25T10:53:09.596Z,6.30
2017-12-25T10:55:37.130Z,6.70
2017-12-25T10:58:04.637Z,6.20
2017-12-25T11:00:37.972Z,6.13
2017-12-25T11:03:05.533Z,6.83
2017-12-25T11:05:33.076Z,6.80
2017-12-25T11:08:01.354Z,5.90
2017-12-25T11:10:30.331Z,7.27
2017-12-25T11:12:58.782Z,5.73
2017-12-25T11:15:26.345Z,6.03
2017-12-25T11:17:53.871Z,5.77
2017-12-25T11:20:21.382Z,5.43
2017-12-25T11:22:49.015Z,6.37
2017-12-25T11:25:16.533Z,4.90
2017-12-25T11:27:44.834Z,5.60
2017-12-25T11:30:12.346Z,5.00
2017-12-25T11:32:39.882Z,5.50
2017-12-25T11:35:07.416Z,5.77
2017-12-25T11:37:34.977Z,6.00
2017-12-25T11:40:02.488Z,6.50
2017-12-25T11:42:30.777Z,5.50
2017-12-25T11:44:58.390Z,5.10
2017-12-25T11:47:26.136Z,5.10
2017-12-25T11:49:53.767Z,6.27
2017-12-25T11:52:21.363Z,5.37
2017-12-25T11:54:48.877Z,6.10
2017-12-25T11:57:16.480Z,5.43
2017-12-25T11:59:44.057Z,5.67
2017-12-25T12:02:11.604Z,5.90
2017-12-25T12:04:39.233Z,5.50
2017-12-25T12:07:06.823Z,5.13
2017-12-25T12:09:34.398Z,6.67
2017-12-25T12:12:01.960Z,5.30
2017-12-25T12:14:29.649Z,6.10
2017-12-25T12:16:57.210Z,5.67
2017-12-25T12:19:24.732Z,5.67
2017-12-25T12:21:52.250Z,6.73
2017-12-25T12:24:20.369Z,5.27
2017-12-25T12:26:47.904Z,5.83
2017-12-25T12:29:16.195Z,5.90
2017-12-25T12:31:44.471Z,5.20
2017-12-25T12:34:12.800Z,6.10
2017-12-25T12:36:41.089Z,5.17
2017-12-25T12:39:19.231Z,5.03
2017-12-25T12:41:47.532Z,5.60
2017-12-25T12:44:15.622Z,4.60
2017-12-25T12:46:43.173Z,4.53
2017-12-25T12:49:10.839Z,4.83
2017-12-25T12:51:38.365Z,5.10
2017-12-25T12:54:06.981Z,4.73
2017-12-25T12:56:34.648Z,4.17
2017-12-25T12:59:02.280Z,4.43
2017-12-25T13:01:31.000Z,4.60
2017-12-25T13:03:58.580Z,4.53
2017-12-25T13:06:26.448Z,4.07
2017-12-25T13:08:54.042Z,4.53
2017-12-25T13:11:22.336Z,4.47
2017-12-25T13:13:49.902Z,4.53
2017-12-25T13:16:18.064Z,4.10
2017-12-25T13:18:45.984Z,4.03
2017-12-25T13:21:13.645Z,4.00
2017-12-25T13:23:41.154Z,4.30
2017-12-25T13:26:09.456Z,4.20
2017-12-25T13:28:37.340Z,3.60
2017-12-25T13:31:05.311Z,4.53
2017-12-25T13:33:32.959Z,3.90
2017-12-25T13:36:00.485Z,4.13
2017-12-25T13:38:27.992Z,4.20
2017-12-25T13:40:55.656Z,4.20
2017-12-25T13:43:23.318Z,4.10
2017-12-25T13:45:51.767Z,4.60
2017-12-25T13:48:19.350Z,3.90
2017-12-25T13:50:46.870Z,4.03
2017-12-25T13:53:15.189Z,3.60
2017-12-25T13:55:42.825Z,3.20
2017-12-25T13:58:11.112Z,3.83
2017-12-25T14:00:39.409Z,3.47
2017-12-25T14:03:06.916Z,3.07
2017-12-25T14:05:34.486Z,3.60
2017-12-25T14:08:02.086Z,3.70
2017-12-25T14:10:29.680Z,3.90
2017-12-25T14:12:57.234Z,3.50
2017-12-25T14:15:24.784Z,4.13
2017-12-25T14:17:52.314Z,3.73
2017-12-25T14:20:20.621Z,4.03
2017-12-25T14:22:48.145Z,4.40
2017-12-25T14:25:16.458Z,4.20
2017-12-25T14:27:44.013Z,4.30
2017-12-25T14:30:11.576Z,3.93
2017-12-25T14:32:39.116Z,4.67
2017-12-25T14:35:07.409Z,4.73
2017-12-25T14:37:34.937Z,4.50
2017-12-25T14:40:03.241Z,4.83
2017-12-25T14:42:30.804Z,4.90
2017-12-25T14:44:58.365Z,5.13
2017-12-25T14:47:25.932Z,5.77
2017-12-25T14:49:53.445Z,5.03
2017-12-25T14:52:21.050Z,4.00
2017-12-25T14:54:48.827Z,4.67
2017-12-25T14:57:16.376Z,4.60
2017-12-25T14:59:44.055Z,4.60
2017-12-25T15:02:11.633Z,5.00
2017-12-25T15:04:39.160Z,4.53
2017-12-25T15:07:06.734Z,4.80
2017-12-25T15:09:34.388Z,5.60
2017-12-25T15:12:02.368Z,6.03
2017-12-25T15:14:30.337Z,5.67
2017-12-25T15:16:58.718Z,4.80
2017-12-25T15:19:29.759Z,4.60
2017-12-25T15:21:58.116Z,4.70
2017-12-25T15:24:26.109Z,5.03
2017-12-25T15:26:53.653Z,4.60
2017-12-25T15:29:21.743Z,4.80
2017-12-25T15:31:49.309Z,3.93
2017-12-25T15:34:16.844Z,3.83
2017-12-25T15:36:45.125Z,3.80
2017-12-25T15:39:12.649Z,4.20
2017-12-25T15:41:40.154Z,3.63
2017-12-25T15:44:07.712Z,3.23
2017-12-25T15:46:35.220Z,3.20
2017-12-25T15:49:02.749Z,3.10
2017-12-25T15:51:30.296Z,3.03
2017-12-25T15:53:57.856Z,3.80
2017-12-25T15:56:25.363Z,2.80
2017-12-25T15:58:52.979Z,3.00
2017-12-25T16:01:20.534Z,2.67
2017-12-25T16:03:48.036Z,2.90
2017-12-25T16:06:15.565Z,2.47
2017-12-25T16:08:43.117Z,2.40
2017-12-25T16:11:10.638Z,3.00
2017-12-25T16:13:38.145Z,2.50
2017-12-25T16:16:05.665Z,2.60
2017-12-25T16:18:33.976Z,2.60
2017-12-25T16:21:01.529Z,3.10
2017-12-25T16:23:29.088Z,2.30
2017-12-25T16:25:56.604Z,2.40
2017-12-25T16:28:24.105Z,2.57
2017-12-25T16:30:51.632Z,2.27
2017-12-25T16:33:19.144Z,2.10
2017-12-25T16:35:46.669Z,2.53
2017-12-25T16:38:14.954Z,2.20
2017-12-25T16:40:43.245Z,2.30
2017-12-25T16:43:10.807Z,2.10
2017-12-25T16:45:38.328Z,2.20
2017-12-25T16:48:05.938Z,1.77
2017-12-25T16:50:33.489Z,1.90
2017-12-25T16:53:00.997Z,2.00
2017-12-25T16:55:28.605Z,1.87
2017-12-25T16:57:56.177Z,2.60
2017-12-25T17:00:23.715Z,1.90
2017-12-25T17:02:52.004Z,2.00
2017-12-25T17:05:19.542Z,2.30
2017-12-25T17:07:47.970Z,2.20
2017-12-25T17:10:15.642Z,1.97
2017-12-25T17:12:43.402Z,2.10
2017-12-25T17:15:11.103Z,1.87
2017-12-25T17:17:38.753Z,1.90
2017-12-25T17:20:06.363Z,2.10
2017-12-25T17:22:33.895Z,1.90
2017-12-25T17:25:01.417Z,2.20
2017-12-25T17:27:29.049Z,1.90
2017-12-25T17:29:56.595Z,2.23
2017-12-25T17:32:24.884Z,2.30
2017-12-25T17:34:52.450Z,1.97
2017-12-25T17:37:20.019Z,2.30
2017-12-25T17:39:47.677Z,1.77
2017-12-25T17:42:15.235Z,1.77
2017-12-25T17:44:42.739Z,2.13
2017-12-25T17:47:10.361Z,2.00
2017-12-25T17:49:37.868Z,2.33
2017-12-25T17:52:05.476Z,2.00
2017-12-25T17:54:33.003Z,2.20
2017-12-25T17:57:00.510Z,2.03
2017-12-25T17:59:28.070Z,2.27
2017-12-25T18:01:55.590Z,2.20
2017-12-25T18:04:23.893Z,2.20
2017-12-25T18:06:51.410Z,2.10
2017-12-25T18:09:19.706Z,2.03
2017-12-25T18:11:47.982Z,1.90
2017-12-25T18:14:15.531Z,2.50
2017-12-25T18:16:43.250Z,2.33
2017-12-25T18:19:11.115Z,2.40
2017-12-25T18:21:38.633Z,2.27
2017-12-25T18:24:06.155Z,2.10
2017-12-25T18:26:34.108Z,2.30
2017-12-25T18:29:01.872Z,2.40
2017-12-25T18:31:29.537Z,2.07
2017-12-25T18:33:57.607Z,2.40
2017-12-25T18:36:25.144Z,2.67
2017-12-25T18:38:53.430Z,2.60
2017-12-25T18:41:20.965Z,2.80
2017-12-25T18:43:49.247Z,2.37
2017-12-25T18:46:17.544Z,2.33
2017-12-25T18:48:45.062Z,2.43
2017-12-25T18:51:12.581Z,2.60
2017-12-25T18:53:40.094Z,2.53
2017-12-25T18:56:07.625Z,2.80
2017-12-25T18:58:35.153Z,2.40
2017-12-25T19:01:02.712Z,2.60
2017-12-25T19:03:30.287Z,2.30
2017-12-25T19:05:57.933Z,2.73
2017-12-25T19:08:26.413Z,2.37
2017-12-25T19:10:54.119Z,2.50
2017-12-25T19:13:21.672Z,2.60
2017-12-25T19:15:49.351Z,2.67
2017-12-25T19:18:16.939Z,2.70
2017-12-25T19:20:45.240Z,2.83
2017-12-25T19:23:12.751Z,3.10
2017-12-25T19:25:40.887Z,2.67
2017-12-25T19:28:08.402Z,2.80
2017-12-25T19:30:36.701Z,2.50
2017-12-25T19:33:05.051Z,3.00
2017-12-25T19:35:32.604Z,2.80
2017-12-25T19:38:00.127Z,2.90
2017-12-25T19:40:27.676Z,2.87
2017-12-25T19:42:55.235Z,3.00
2017-12-25T19:45:22.752Z,2.90
2017-12-25T19:47:50.285Z,2.63
2017-12-25T19:50:17.827Z,2.97
2017-12-25T19:52:45.390Z,2.53
2017-12-25T19:55:12.941Z,3.00
2017-12-25T19:57:40.471Z,3.57
2017-12-25T20:00:07.985Z,2.73
2017-12-25T20:02:35.514Z,2.90
2017-12-25T20:05:03.033Z,2.80
2017-12-25T20:07:30.570Z,3.00
2017-12-25T20:09:58.117Z,2.60
2017-12-25T20:12:25.653Z,3.00
2017-12-25T20:14:53.176Z,3.13
2017-12-25T20:17:20.711Z,2.90
2017-12-25T20:19:48.241Z,3.00
2017-12-25T20:22:15.810Z,3.00
2017-12-25T20:24:43.319Z,2.50
2017-12-25T20:27:11.627Z,3.20
2017-12-25T20:29:39.240Z,2.87
2017-12-25T20:32:06.787Z,3.13
2017-12-25T20:34:34.331Z,3.93
2017-12-25T20:37:01.888Z,3.23
2017-12-25T20:39:29.463Z,4.43
2017-12-25T20:41:57.128Z,3.07
2017-12-25T20:44:24.770Z,3.70
2017-12-25T20:46:52.545Z,3.70
2017-12-25T20:49:20.193Z,3.53
2017-12-25T20:51:47.723Z,3.73
2017-12-25T20:54:16.337Z,3.30
2017-12-25T20:56:43.859Z,3.23
2017-12-25T20:59:11.470Z,3.90
2017-12-25T21:01:39.022Z,3.60
2017-12-25T21:04:06.675Z,3.83
2017-12-25T21:06:34.362Z,4.03
2017-12-25T21:09:02.012Z,3.97
2017-12-25T21:11:29.681Z,3.93
2017-12-25T21:13:57.453Z,3.80
2017-12-25T21:16:25.222Z,3.60
2017-12-25T21:18:53.701Z,4.47
2017-12-25T21:21:21.252Z,3.83
2017-12-25T21:23:48.784Z,3.63
2017-12-25T21:26:18.657Z,4.00
2017-12-25T21:28:46.206Z,4.00
2017-12-25T21:31:13.727Z,3.77
2017-12-25T21:33:42.484Z,4.43
2017-12-25T21:36:10.668Z,3.80
2017-12-25T21:38:38.901Z,4.37
2017-12-25T21:41:07.915Z,4.03
2017-12-25T21:43:37.404Z,3.80
2017-12-25T21:46:05.786Z,4.10
2017-12-25T21:48:36.040Z,3.80
2017-12-25T21:51:06.332Z,3.80
2017-12-25T21:53:36.038Z,4.53
2017-12-25T21:56:05.101Z,4.47
2017-12-25T21:58:32.659Z,4.13
2017-12-25T22:01:01.436Z,4.57
2017-12-25T22:03:29.026Z,4.33
2017-12-25T22:05:57.942Z,4.53
2017-12-25T22:08:25.900Z,4.20
2017-12-25T22:10:54.274Z,4.23
2017-12-25T22:13:22.262Z,4.10
2017-12-25T22:15:50.946Z,4.40
2017-12-25T22:18:21.225Z,4.17
2017-12-25T22:20:49.653Z,4.43
2017-12-25T22:23:17.417Z,4.47
2017-12-25T22:25:45.612Z,4.30
2017-12-25T22:28:18.595Z,4.50
2017-12-25T22:30:46.452Z,4.73
2017-12-25T22:33:14.727Z,4.00
2017-12-25T22:35:42.834Z,4.60
2017-12-25T22:38:10.875Z,5.00
2017-12-25T22:40:38.843Z,4.80
2017-12-25T22:43:06.601Z,4.43
2017-12-25T22:45:34.825Z,4.30
2017-12-25T22:48:02.899Z,4.70
2017-12-25T22:50:31.034Z,4.63
2017-12-25T22:52:59.182Z,5.00
2017-12-25T22:55:27.153Z,5.03
2017-12-25T22:57:55.807Z,5.50
2017-12-25T23:00:28.032Z,5.70
2017-12-25T23:02:56.412Z,5.50
2017-12-25T23:05:24.077Z,5.90
2017-12-25T23:07:52.719Z,5.63
2017-12-25T23:10:21.350Z,5.07
2017-12-25T23:12:54.520Z,5.63
2017-12-25T23:15:23.589Z,6.05
2017-12-25T23:17:52.259Z,5.47
2017-12-25T23:20:20.295Z,6.43
2017-12-25T23:22:48.076Z,6.40
2017-12-25T23:25:15.686Z,5.57
2017-12-25T23:27:44.007Z,5.60
2017-12-25T23:30:11.881Z,6.03
2017-12-25T23:32:39.582Z,6.00
2017-12-25T23:35:07.412Z,5.50
2017-12-25T23:37:35.224Z,7.03
2017-12-25T23:40:02.943Z,5.90
2017-12-25T23:42:30.497Z,6.97
2017-12-25T23:44:58.060Z,6.50
2017-12-25T23:47:25.846Z,5.30
2017-12-25T23:49:53.692Z,6.70
2017-12-25T23:52:21.298Z,6.87
2017-12-25T23:54:48.938Z,6.50
2017-12-25T23:57:16.999Z,7.10
2017-12-25T23:59:44.571Z,7.17
